TimeCST,TemperatureF,Dew PointF,Humidity,Sea Level PressureIn,VisibilityMPH,Wind Direction,Wind SpeedMPH,Gust SpeedMPH,PrecipitationIn,Events,Conditions,WindDirDegrees,DateUTC
12:53 AM,45.0,30.9,58,30.23,10.0,NW,4.6,-,N/A,,Partly Cloudy,320,2013-03-02 06:53:00
1:53 AM,43.0,30.9,62,30.23,10.0,West,6.9,-,N/A,,Clear,270,2013-03-02 07:53:00
2:53 AM,41.0,32.0,70,30.23,10.0,West,5.8,-,N/A,,Clear,280,2013-03-02 08:53:00
3:53 AM,41.0,30.9,67,30.24,10.0,WNW,9.2,-,N/A,,Clear,300,2013-03-02 09:53:00
4:53 AM,39.9,30.9,70,30.25,10.0,NNW,6.9,-,N/A,,Clear,330,2013-03-02 10:53:00
5:53 AM,41.0,30.2,65,30.26,10.0,NNW,13.8,-,N/A,,Clear,340,2013-03-02 11:53:00
6:53 AM,39.0,30.0,70,30.29,10.0,NNW,13.8,21.9,N/A,,Clear,340,2013-03-02 12:53:00
7:53 AM,41.0,28.0,60,30.31,10.0,North,13.8,-,N/A,,Clear,350,2013-03-02 13:53:00
8:53 AM,44.6,26.6,49,30.33,10.0,NNW,15.0,-,N/A,,Clear,340,2013-03-02 14:53:00
9:53 AM,45.0,27.0,49,30.32,10.0,NNW,16.1,25.3,N/A,,Clear,330,2013-03-02 15:53:00
10:53 AM,46.9,26.1,44,30.31,10.0,NNW,15.0,27.6,N/A,,Clear,330,2013-03-02 16:53:00
11:53 AM,48.9,26.1,41,30.30,10.0,NW,17.3,24.2,N/A,,Clear,320,2013-03-02 17:53:00
12:53 PM,50.0,28.0,43,30.27,10.0,North,16.1,25.3,N/A,,Clear,350,2013-03-02 18:53:00
1:53 PM,52.0,26.1,37,30.24,10.0,NW,11.5,24.2,N/A,,Clear,310,2013-03-02 19:53:00
2:53 PM,53.1,26.1,35,30.24,10.0,NNW,17.3,23.0,N/A,,Clear,340,2013-03-02 20:53:00
3:53 PM,53.1,24.1,32,30.23,10.0,NW,15.0,24.2,N/A,,Clear,320,2013-03-02 21:53:00
4:53 PM,52.0,24.1,34,30.23,10.0,NNW,15.0,25.3,N/A,,Clear,340,2013-03-02 22:53:00
5:53 PM,50.0,23.0,35,30.25,10.0,NNW,12.7,-,N/A,,Clear,340,2013-03-02 23:53:00
6:53 PM,46.4,23.0,40,30.27,10.0,North,9.2,-,N/A,,Clear,350,2013-03-03 00:53:00
7:53 PM,44.1,25.0,47,30.29,10.0,North,6.9,-,N/A,,Clear,350,2013-03-03 01:53:00
8:53 PM,44.1,25.0,47,30.30,10.0,Calm,Calm,-,N/A,,Clear,0,2013-03-03 02:53:00
9:53 PM,41.0,26.1,55,30.30,10.0,WNW,4.6,-,N/A,,Clear,300,2013-03-03 03:53:00
10:53 PM,39.9,26.1,58,30.30,10.0,NNW,3.5,-,N/A,,Clear,340,2013-03-03 04:53:00
11:53 PM,37.9,26.1,62,30.29,10.0,NNW,4.6,-,N/A,,Clear,340,2013-03-03 05:53:00